Time;durP1;ratioP1;P1;durP2;ratioP2;P2;SDS_P1;SDS_P2;PMS_P1;PMS_P2;Temp;Humidity;BMP_temperature;BMP_pressure;BME280_temperature;BME280_humidity;BME280_pressure;Samples;Min_cycle;Max_cycle;Signal;HPM_P1;HPM_P2
2023/08/13 00:01:13;;;;;;;6.43;3.58;;;;;;;;;;4927020;29;20578;-92
2023/08/13 00:03:43;;;;;;;5.10;2.78;;;;;;;;;;4924608;29;20698;-92
2023/08/13 00:06:10;;;;;;;4.95;3.47;;;;;;;;;;4943485;29;20052;-92
2023/08/13 00:08:40;;;;;;;5.07;3.10;;;;;;;;;;4935263;29;20047;-93
2023/08/13 00:11:12;;;;;;;4.53;3.00;;;;;;;;;;4945848;28;20423;-92
2023/08/13 00:13:44;;;;;;;3.53;2.85;;;;;;;;;;4922995;29;20059;-92
2023/08/13 00:16:12;;;;;;;8.02;3.35;;;;;;;;;;4909805;29;20051;-92
2023/08/13 00:18:39;;;;;;;9.00;3.20;;;;;;;;;;4912515;29;20063;-93
2023/08/13 00:21:06;;;;;;;5.82;3.47;;;;;;;;;;4923819;29;20048;-93
2023/08/13 00:23:37;;;;;;;8.35;3.25;;;;;;;;;;4945156;29;20047;-93
2023/08/13 00:26:04;;;;;;;6.55;3.15;;;;;;;;;;4943483;29;20040;-92
2023/08/13 00:28:33;;;;;;;4.22;2.67;;;;;;;;;;4932705;29;20423;-91
2023/08/13 00:31:01;;;;;;;4.45;3.22;;;;;;;;;;4955285;29;20503;-92
2023/08/13 00:33:28;;;;;;;8.00;3.85;;;;;;;;;;4933421;29;20822;-91
2023/08/13 00:35:57;;;;;;;7.72;3.35;;;;;;;;;;4920868;29;20066;-92
2023/08/13 00:38:25;;;;;;;7.03;3.47;;;;;;;;;;4958941;29;20058;-93
2023/08/13 00:40:56;;;;;;;5.63;3.72;;;;;;;;;;4917412;28;20051;-92
2023/08/13 00:44:10;;;;;;;10.50;3.85;;;;;;;;;;4928786;29;20047;-93
2023/08/13 00:46:47;;;;;;;10.90;4.07;;;;;;;;;;4932869;29;20039;-93
2023/08/13 00:49:18;;;;;;;5.38;3.40;;;;;;;;;;4935906;29;20062;-93
2023/08/13 00:52:10;;;;;;;7.47;4.07;;;;;;;;;;4933055;29;20063;-93
2023/08/13 00:55:27;;;;;;;6.93;3.83;;;;;;;;;;4930793;29;20411;-93
2023/08/13 00:58:07;;;;;;;8.43;6.35;;;;;;;;;;4928093;29;20054;-93
2023/08/13 01:00:36;;;;;;;5.10;3.67;;;;;;;;;;4915450;29;20051;-92
2023/08/13 01:03:03;;;;;;;7.80;3.38;;;;;;;;;;4934909;29;20066;-93
2023/08/13 01:05:49;;;;;;;3.65;2.65;;;;;;;;;;4915161;29;20514;-92
2023/08/13 01:08:21;;;;;;;4.18;2.90;;;;;;;;;;4920028;29;20055;-92
2023/08/13 01:10:54;;;;;;;3.45;2.85;;;;;;;;;;4930717;29;20062;-93
2023/08/13 01:13:25;;;;;;;6.07;4.00;;;;;;;;;;4934597;29;20561;-92
2023/08/13 01:15:57;;;;;;;3.88;3.38;;;;;;;;;;4941818;28;20051;-91
2023/08/13 01:18:26;;;;;;;3.83;3.08;;;;;;;;;;4916901;29;20055;-92
2023/08/13 01:20:53;;;;;;;7.18;3.80;;;;;;;;;;4921581;28;20090;-92
2023/08/13 01:23:27;;;;;;;5.78;4.00;;;;;;;;;;4947484;29;20051;-92
2023/08/13 01:25:59;;;;;;;6.88;4.07;;;;;;;;;;4932725;29;20048;-93
2023/08/13 01:28:33;;;;;;;11.30;4.32;;;;;;;;;;4921548;29;20446;-91
2023/08/13 01:31:03;;;;;;;5.70;3.75;;;;;;;;;;4942227;29;20424;-92
2023/08/13 01:33:34;;;;;;;;;;;;;;;;;;4919338;29;20051;-93
2023/08/13 01:36:06;;;;;;;5.00;3.75;;;;;;;;;;4921442;29;19929;-92
2023/08/13 01:38:38;;;;;;;4.97;3.97;;;;;;;;;;4937521;29;20044;-90
2023/08/13 01:41:07;;;;;;;4.57;3.60;;;;;;;;;;4915105;29;20043;-92
2023/08/13 01:43:37;;;;;;;15.55;4.47;;;;;;;;;;4930773;29;20426;-93
2023/08/13 01:46:04;;;;;;;10.88;4.18;;;;;;;;;;4911296;29;20040;-93
2023/08/13 01:48:32;;;;;;;10.93;4.50;;;;;;;;;;4923629;29;20502;-92
2023/08/13 01:51:04;;;;;;;5.40;3.60;;;;;;;;;;4934156;29;22028;-92
2023/08/13 01:53:32;;;;;;;15.00;4.68;;;;;;;;;;4931176;29;20511;-92
2023/08/13 01:56:06;;;;;;;6.78;4.10;;;;;;;;;;4934091;29;20047;-92
2023/08/13 01:58:33;;;;;;;10.48;4.63;;;;;;;;;;4953385;29;20066;-93
2023/08/13 02:01:01;;;;;;;4.78;4.10;;;;;;;;;;4912353;29;20052;-92
2023/08/13 02:03:29;;;;;;;6.80;5.50;;;;;;;;;;4919023;29;20055;-94
2023/08/13 02:06:00;;;;;;;6.38;4.80;;;;;;;;;;4914744;29;20044;-93
2023/08/13 02:08:27;;;;;;;4.60;4.10;;;;;;;;;;4936956;29;20051;-92
2023/08/13 02:10:54;;;;;;;8.18;4.18;;;;;;;;;;4912001;29;20059;-93
2023/08/13 02:13:24;;;;;;;8.82;4.10;;;;;;;;;;4947646;29;20051;-92
2023/08/13 02:15:51;;;;;;;6.22;3.70;;;;;;;;;;4916690;29;20059;-92
2023/08/13 02:18:18;;;;;;;4.72;3.80;;;;;;;;;;4933852;29;20055;-93
2023/08/13 02:20:46;;;;;;;9.10;3.35;;;;;;;;;;4911147;29;20426;-92
2023/08/13 02:23:13;;;;;;;4.55;3.33;;;;;;;;;;4945204;29;20059;-92
2023/08/13 02:25:41;;;;;;;9.25;4.10;;;;;;;;;;4928271;29;20058;-93
2023/08/13 02:28:08;;;;;;;9.88;4.00;;;;;;;;;;4919608;29;20054;-92
2023/08/13 02:30:39;;;;;;;5.15;3.50;;;;;;;;;;4916957;29;20062;-92
2023/08/13 02:33:10;;;;;;;6.80;3.78;;;;;;;;;;4931199;29;20074;-91
2023/08/13 02:35:37;;;;;;;7.82;3.75;;;;;;;;;;4913838;29;20052;-93
2023/08/13 02:38:07;;;;;;;4.72;3.47;;;;;;;;;;4915739;29;20054;-92
2023/08/13 02:40:34;;;;;;;4.55;3.38;;;;;;;;;;4936231;29;20054;-92
2023/08/13 02:43:04;;;;;;;8.68;3.20;;;;;;;;;;4927028;29;20530;-93
2023/08/13 02:45:33;;;;;;;4.47;3.08;;;;;;;;;;4934124;29;20055;-92
2023/08/13 02:48:02;;;;;;;8.23;3.47;;;;;;;;;;4919378;29;20059;-92
2023/08/13 02:50:32;;;;;;;4.38;2.85;;;;;;;;;;4947909;29;20646;-93
2023/08/13 02:53:02;;;;;;;6.95;3.15;;;;;;;;;;4927452;29;20530;-92
2023/08/13 02:55:29;;;;;;;3.05;2.75;;;;;;;;;;4909699;29;20047;-92
2023/08/13 02:57:57;;;;;;;3.00;2.70;;;;;;;;;;4912599;29;20059;-93
2023/08/13 03:00:27;;;;;;;7.13;2.85;;;;;;;;;;4918104;28;20430;-93
2023/08/13 03:02:55;;;;;;;4.88;2.50;;;;;;;;;;4912861;29;20055;-94
2023/08/13 03:05:24;;;;;;;6.20;3.38;;;;;;;;;;4933302;29;20059;-92
2023/08/13 03:07:52;;;;;;;6.22;2.90;;;;;;;;;;4910878;29;20070;-92
2023/08/13 03:10:19;;;;;;;4.00;2.97;;;;;;;;;;4921178;29;20399;-92
2023/08/13 03:12:49;;;;;;;6.78;3.13;;;;;;;;;;4928263;29;20047;-92
2023/08/13 03:15:21;;;;;;;13.52;3.83;;;;;;;;;;4911407;29;20062;-92
2023/08/13 03:17:48;;;;;;;4.43;2.65;;;;;;;;;;4908147;29;20051;-91
2023/08/13 03:20:18;;;;;;;3.50;2.45;;;;;;;;;;4950436;29;20051;-92
2023/08/13 03:22:46;;;;;;;4.70;3.75;;;;;;;;;;4917108;29;20059;-93
2023/08/13 03:25:14;;;;;;;6.72;4.15;;;;;;;;;;4943649;28;20047;-92
2023/08/13 03:27:41;;;;;;;4.15;2.85;;;;;;;;;;4928269;29;20062;-92
2023/08/13 03:30:14;;;;;;;5.68;2.85;;;;;;;;;;4943471;29;20419;-92
2023/08/13 03:32:42;;;;;;;3.10;2.80;;;;;;;;;;4932798;29;20039;-92
2023/08/13 03:35:12;;;;;;;3.30;2.65;;;;;;;;;;4908332;29;20526;-92
2023/08/13 03:37:40;;;;;;;5.82;3.22;;;;;;;;;;4920844;29;20451;-93
2023/08/13 03:40:10;;;;;;;3.10;2.70;;;;;;;;;;4928005;29;20066;-93
2023/08/13 03:42:38;;;;;;;5.63;2.88;;;;;;;;;;4912112;29;20047;-93
2023/08/13 03:45:06;;;;;;;8.48;2.97;;;;;;;;;;4924000;29;20052;-93
2023/08/13 03:47:34;;;;;;;6.93;2.97;;;;;;;;;;4917803;28;20074;-93
2023/08/13 03:50:04;;;;;;;3.53;2.15;;;;;;;;;;4914045;29;20058;-92
2023/08/13 03:52:32;;;;;;;5.30;2.78;;;;;;;;;;4918208;29;20058;-93
2023/08/13 03:55:00;;;;;;;3.75;2.60;;;;;;;;;;4931935;29;20063;-93
2023/08/13 03:57:31;;;;;;;3.40;2.67;;;;;;;;;;4940063;29;20057;-92
2023/08/13 03:59:58;;;;;;;3.78;2.30;;;;;;;;;;4938811;29;20055;-93
2023/08/13 04:02:26;;;;;;;7.22;3.22;;;;;;;;;;4921593;29;20149;-92
2023/08/13 04:04:54;;;;;;;2.53;2.30;;;;;;;;;;4927979;29;20039;-90
2023/08/13 04:07:24;;;;;;;3.25;2.67;;;;;;;;;;4942737;29;20032;-91
2023/08/13 04:09:53;;;;;;;4.13;2.30;;;;;;;;;;4934032;29;20051;-93
2023/08/13 04:12:21;;;;;;;2.58;2.38;;;;;;;;;;4948385;29;20533;-92
2023/08/13 04:14:49;;;;;;;5.07;3.55;;;;;;;;;;4951806;29;20496;-92
2023/08/13 04:17:19;;;;;;;4.22;3.67;;;;;;;;;;4925352;29;20048;-93
2023/08/13 04:19:50;;;;;;;4.57;2.90;;;;;;;;;;4938809;29;20059;-92
2023/08/13 04:22:20;;;;;;;3.35;3.05;;;;;;;;;;4933336;29;20070;-92
2023/08/13 04:24:50;;;;;;;3.92;2.70;;;;;;;;;;4920980;29;20047;-93
2023/08/13 04:27:19;;;;;;;3.83;2.50;;;;;;;;;;4914124;29;20502;-93
2023/08/13 04:29:50;;;;;;;3.20;2.90;;;;;;;;;;4915514;29;20055;-92
2023/08/13 04:32:17;;;;;;;3.38;2.20;;;;;;;;;;4915647;29;20071;-93
2023/08/13 04:34:44;;;;;;;3.75;2.53;;;;;;;;;;4930494;29;20043;-92
2023/08/13 04:37:12;;;;;;;3.97;2.30;;;;;;;;;;4930794;29;20044;-92
2023/08/13 04:39:40;;;;;;;3.95;2.40;;;;;;;;;;4932252;29;20067;-92
2023/08/13 04:42:09;;;;;;;2.42;1.80;;;;;;;;;;4913798;29;20051;-92
2023/08/13 04:44:41;;;;;;;2.53;2.00;;;;;;;;;;4922370;29;20051;-92
2023/08/13 04:47:10;;;;;;;8.45;2.60;;;;;;;;;;4909958;29;20058;-92
2023/08/13 04:49:37;;;;;;;2.17;1.95;;;;;;;;;;4928016;29;20422;-92
2023/08/13 04:52:05;;;;;;;2.90;2.40;;;;;;;;;;4917217;29;20051;-92
2023/08/13 04:54:32;;;;;;;3.10;2.38;;;;;;;;;;4926983;29;20044;-92
2023/08/13 04:57:00;;;;;;;2.50;2.30;;;;;;;;;;4912909;29;20529;-91
2023/08/13 04:59:28;;;;;;;3.17;2.10;;;;;;;;;;4931903;29;20081;-92
2023/08/13 05:01:59;;;;;;;3.53;2.83;;;;;;;;;;4929880;29;20058;-92
2023/08/13 05:04:30;;;;;;;3.17;2.70;;;;;;;;;;4921626;29;20047;-92
2023/08/13 05:06:57;;;;;;;4.72;2.08;;;;;;;;;;4912973;29;20048;-93
2023/08/13 05:09:25;;;;;;;3.22;2.50;;;;;;;;;;4931033;29;20046;-92
2023/08/13 05:11:57;;;;;;;3.45;2.90;;;;;;;;;;4938264;29;20059;-92
2023/08/13 05:14:25;;;;;;;4.25;2.63;;;;;;;;;;4932839;29;20054;-93
2023/08/13 05:16:55;;;;;;;3.35;2.50;;;;;;;;;;4921191;29;20060;-92
2023/08/13 05:19:22;;;;;;;7.78;2.63;;;;;;;;;;4930388;29;20047;-91
2023/08/13 05:21:51;;;;;;;4.88;2.22;;;;;;;;;;4915398;29;20070;-91
2023/08/13 05:24:19;;;;;;;5.57;2.75;;;;;;;;;;4937052;29;20425;-92
2023/08/13 05:26:48;;;;;;;7.50;3.28;;;;;;;;;;4927372;29;20055;-93
2023/08/13 05:29:17;;;;;;;3.17;2.80;;;;;;;;;;4916250;29;20438;-92
2023/08/13 05:31:45;;;;;;;3.72;3.20;;;;;;;;;;4949442;29;20050;-93
2023/08/13 05:34:12;;;;;;;3.42;3.13;;;;;;;;;;4928999;29;20054;-92
2023/08/13 05:36:40;;;;;;;3.55;2.75;;;;;;;;;;4913442;28;20063;-90
2023/08/13 05:39:09;;;;;;;4.00;2.65;;;;;;;;;;4928579;29;20506;-92
2023/08/13 05:41:39;;;;;;;4.20;2.83;;;;;;;;;;4922845;28;20907;-92
2023/08/13 05:44:07;;;;;;;4.13;3.13;;;;;;;;;;4917540;29;20426;-91
2023/08/13 05:46:34;;;;;;;7.32;3.40;;;;;;;;;;4929824;29;20043;-91
2023/08/13 05:49:01;;;;;;;8.85;2.90;;;;;;;;;;4925076;29;20059;-92
2023/08/13 05:51:29;;;;;;;4.25;3.30;;;;;;;;;;4910912;29;20052;-91
2023/08/13 05:53:56;;;;;;;5.18;2.72;;;;;;;;;;4946667;29;20415;-91
2023/08/13 05:56:25;;;;;;;5.57;2.90;;;;;;;;;;4927963;29;20556;-91
2023/08/13 05:58:52;;;;;;;5.95;3.25;;;;;;;;;;4945808;29;20056;-92
2023/08/13 06:01:20;;;;;;;4.28;3.53;;;;;;;;;;4950780;29;20062;-92
2023/08/13 06:03:47;;;;;;;4.40;3.67;;;;;;;;;;4918224;29;20519;-92
2023/08/13 06:06:15;;;;;;;8.55;5.05;;;;;;;;;;4908221;29;20510;-91
2023/08/13 06:08:43;;;;;;;5.57;4.47;;;;;;;;;;4927884;28;20066;-92
2023/08/13 06:11:10;;;;;;;6.00;4.30;;;;;;;;;;4911701;29;20055;-91
2023/08/13 06:13:39;;;;;;;8.70;5.32;;;;;;;;;;4942361;29;20051;-92
2023/08/13 06:16:07;;;;;;;12.05;4.38;;;;;;;;;;4928716;29;20059;-91
2023/08/13 06:18:36;;;;;;;8.80;5.00;;;;;;;;;;4911776;29;20043;-93
2023/08/13 06:21:04;;;;;;;7.28;4.78;;;;;;;;;;4915873;28;20059;-92
2023/08/13 06:27:32;;;;;;;15.88;6.63;;;;;;;;;;4940990;28;21227;-92
2023/08/13 06:30:01;;;;;;;11.70;6.50;;;;;;;;;;4931684;29;20050;-91
2023/08/13 06:32:31;;;;;;;9.95;6.57;;;;;;;;;;4939048;28;22353;-92
2023/08/13 06:34:59;;;;;;;11.20;6.90;;;;;;;;;;4909227;29;20050;-91
2023/08/13 06:37:26;;;;;;;17.38;8.60;;;;;;;;;;4924379;29;20066;-92
2023/08/13 06:39:56;;;;;;;12.98;7.82;;;;;;;;;;4952650;28;20069;-92
2023/08/13 06:42:23;;;;;;;12.32;6.35;;;;;;;;;;4928228;29;20062;-93
2023/08/13 06:44:54;;;;;;;12.70;5.80;;;;;;;;;;4916369;29;20054;-92
2023/08/13 06:47:23;;;;;;;10.75;5.47;;;;;;;;;;4915846;28;20058;-92
2023/08/13 06:49:50;;;;;;;7.82;4.75;;;;;;;;;;4919057;29;20430;-91
2023/08/13 06:52:20;;;;;;;16.08;7.13;;;;;;;;;;4922419;29;20043;-91
2023/08/13 06:54:47;;;;;;;5.97;5.03;;;;;;;;;;4936312;29;20123;-93
2023/08/13 06:57:14;;;;;;;9.13;5.97;;;;;;;;;;4914988;29;20052;-93
2023/08/13 06:59:44;;;;;;;9.80;5.72;;;;;;;;;;4930673;29;20058;-92
2023/08/13 07:02:11;;;;;;;11.85;5.82;;;;;;;;;;4928678;29;20094;-92
2023/08/13 07:04:43;;;;;;;12.05;6.78;;;;;;;;;;4926626;29;20081;-92
2023/08/13 07:07:10;;;;;;;6.80;5.57;;;;;;;;;;4924371;29;20040;-93
2023/08/13 07:09:37;;;;;;;8.10;5.43;;;;;;;;;;4928367;29;20055;-92
2023/08/13 07:12:07;;;;;;;6.88;5.32;;;;;;;;;;4948634;29;20058;-92
2023/08/13 07:14:35;;;;;;;5.78;4.72;;;;;;;;;;4928484;29;20054;-93
2023/08/13 07:17:05;;;;;;;6.60;5.07;;;;;;;;;;4947036;28;20116;-92
2023/08/13 07:19:38;;;;;;;6.00;4.75;;;;;;;;;;4915695;29;20051;-92
2023/08/13 07:22:07;;;;;;;5.85;5.22;;;;;;;;;;4926100;29;20043;-92
2023/08/13 07:24:41;;;;;;;8.55;5.25;;;;;;;;;;4946890;28;20055;-93
2023/08/13 07:27:11;;;;;;;7.78;5.30;;;;;;;;;;4926704;29;20043;-92
2023/08/13 07:29:39;;;;;;;7.85;4.55;;;;;;;;;;4940425;28;20055;-92
2023/08/13 07:32:06;;;;;;;5.90;4.53;;;;;;;;;;4913456;29;20055;-92
2023/08/13 07:34:37;;;;;;;4.95;4.05;;;;;;;;;;4913428;29;20518;-92
2023/08/13 07:37:08;;;;;;;3.80;3.40;;;;;;;;;;4924760;29;20055;-92
2023/08/13 07:39:36;;;;;;;4.35;3.67;;;;;;;;;;4951204;28;20053;-93
2023/08/13 07:42:08;;;;;;;3.58;3.25;;;;;;;;;;4947102;28;20036;-91
2023/08/13 07:44:38;;;;;;;4.88;3.75;;;;;;;;;;4973571;28;20036;-92
2023/08/13 07:47:08;;;;;;;6.38;4.55;;;;;;;;;;4936891;29;20051;-92
2023/08/13 07:49:37;;;;;;;3.95;3.55;;;;;;;;;;4940316;29;20059;-92
2023/08/13 07:52:05;;;;;;;6.38;3.83;;;;;;;;;;4966565;28;20032;-92
2023/08/13 07:54:35;;;;;;;4.35;3.95;;;;;;;;;;4952402;28;20043;-93
2023/08/13 07:57:02;;;;;;;3.70;3.03;;;;;;;;;;4967686;28;20270;-93
2023/08/13 07:59:34;;;;;;;3.67;2.95;;;;;;;;;;4955258;28;20027;-94
2023/08/13 08:02:03;;;;;;;6.75;3.30;;;;;;;;;;4955239;28;20057;-93
2023/08/13 08:04:30;;;;;;;5.93;3.50;;;;;;;;;;4964571;28;20053;-94
2023/08/13 08:06:58;;;;;;;5.05;3.15;;;;;;;;;;4952598;28;20046;-94
2023/08/13 08:09:28;;;;;;;4.15;3.10;;;;;;;;;;4969848;28;20024;-93
2023/08/13 08:11:59;;;;;;;4.72;3.20;;;;;;;;;;4945431;28;20042;-93
2023/08/13 08:14:27;;;;;;;3.55;3.25;;;;;;;;;;4965585;28;20039;-94
2023/08/13 08:16:59;;;;;;;4.03;3.20;;;;;;;;;;4951624;28;20058;-93
2023/08/13 08:19:29;;;;;;;3.50;3.20;;;;;;;;;;4970751;28;20050;-92
2023/08/13 08:21:59;;;;;;;3.22;2.92;;;;;;;;;;4966546;28;20034;-93
2023/08/13 08:24:29;;;;;;;5.25;2.90;;;;;;;;;;4972523;28;20019;-93
2023/08/13 08:26:57;;;;;;;3.20;2.90;;;;;;;;;;4965741;28;20046;-93
2023/08/13 08:29:26;;;;;;;3.50;3.05;;;;;;;;;;4960500;28;20039;-93
2023/08/13 08:31:56;;;;;;;2.97;2.58;;;;;;;;;;4937886;28;20045;-94
2023/08/13 08:34:23;;;;;;;3.53;3.22;;;;;;;;;;4972607;28;20049;-93
2023/08/13 08:36:53;;;;;;;3.75;3.00;;;;;;;;;;4969349;28;20027;-93
2023/08/13 08:39:21;;;;;;;4.50;3.15;;;;;;;;;;4979802;28;20042;-92
2023/08/13 08:41:51;;;;;;;3.67;3.38;;;;;;;;;;4942059;28;20047;-92
2023/08/13 08:44:23;;;;;;;5.63;3.17;;;;;;;;;;4968386;28;20041;-91
2023/08/13 08:46:56;;;;;;;4.77;3.10;;;;;;;;;;4954645;28;20047;-91
2023/08/13 08:49:24;;;;;;;2.58;2.05;;;;;;;;;;4975917;28;20283;-92
2023/08/13 08:51:54;;;;;;;4.78;2.63;;;;;;;;;;4956271;28;20043;-92
2023/08/13 08:54:25;;;;;;;4.10;2.42;;;;;;;;;;4953261;28;20035;-92
2023/08/13 08:56:52;;;;;;;2.70;2.40;;;;;;;;;;4974302;28;20046;-92
2023/08/13 08:59:20;;;;;;;3.15;2.80;;;;;;;;;;4957866;28;20051;-92
2023/08/13 09:01:47;;;;;;;4.50;2.85;;;;;;;;;;4960377;28;20030;-92
2023/08/13 09:04:16;;;;;;;3.60;3.30;;;;;;;;;;4976834;28;20046;-92
2023/08/13 09:06:57;;;;;;;4.57;2.78;;;;;;;;;;4961110;28;20035;-92
2023/08/13 09:09:25;;;;;;;5.00;2.70;;;;;;;;;;4952614;28;20036;-91
2023/08/13 09:11:54;;;;;;;3.83;2.97;;;;;;;;;;4975624;28;20031;-93
2023/08/13 09:14:21;;;;;;;3.13;2.40;;;;;;;;;;4974876;28;20041;-92
2023/08/13 09:16:55;;;;;;;3.67;2.53;;;;;;;;;;4969530;28;20035;-93
2023/08/13 09:19:27;;;;;;;4.05;2.45;;;;;;;;;;4978584;28;20031;-92
2023/08/13 09:21:55;;;;;;;5.45;2.67;;;;;;;;;;4957450;28;20035;-92
2023/08/13 09:24:33;;;;;;;2.50;1.90;;;;;;;;;;4976435;28;20049;-95
2023/08/13 09:27:01;;;;;;;2.30;2.10;;;;;;;;;;4949021;28;20042;-92
2023/08/13 09:29:31;;;;;;;2.63;2.08;;;;;;;;;;4952697;28;21127;-94
2023/08/13 09:31:59;;;;;;;2.83;2.28;;;;;;;;;;4965936;28;20035;-93
2023/08/13 09:34:30;;;;;;;3.67;1.88;;;;;;;;;;4946634;28;20046;-92
2023/08/13 09:36:58;;;;;;;2.97;1.85;;;;;;;;;;4967822;28;20027;-92
2023/08/13 09:39:31;;;;;;;2.28;2.08;;;;;;;;;;4961943;28;20035;-91
2023/08/13 09:41:59;;;;;;;2.47;2.15;;;;;;;;;;4957553;28;20073;-92
2023/08/13 09:44:30;;;;;;;4.45;2.60;;;;;;;;;;4968958;28;20034;-92
2023/08/13 09:47:00;;;;;;;2.30;2.10;;;;;;;;;;4953263;29;20061;-90
2023/08/13 09:49:31;;;;;;;2.47;1.67;;;;;;;;;;4944380;28;20038;-91
2023/08/13 09:52:01;;;;;;;2.25;2.05;;;;;;;;;;4965283;28;20063;-92
2023/08/13 09:54:47;;;;;;;11.10;3.83;;;;;;;;;;4971479;28;20043;-93
2023/08/13 09:57:18;;;;;;;2.35;1.60;;;;;;;;;;4952059;29;20043;-92
2023/08/13 09:59:46;;;;;;;1.25;1.15;;;;;;;;;;4933779;28;20043;-91
2023/08/13 10:02:15;;;;;;;1.88;1.40;;;;;;;;;;4951740;28;20140;-92
2023/08/13 10:04:46;;;;;;;3.45;1.92;;;;;;;;;;4950227;28;20036;-92
2023/08/13 10:07:16;;;;;;;4.40;2.25;;;;;;;;;;4969361;28;20069;-93
2023/08/13 10:09:44;;;;;;;2.42;2.03;;;;;;;;;;4940659;28;20035;-93
2023/08/13 10:12:12;;;;;;;2.40;2.00;;;;;;;;;;4974380;28;20048;-92
2023/08/13 10:14:40;;;;;;;3.95;1.90;;;;;;;;;;4952849;28;20034;-92
2023/08/13 10:17:08;;;;;;;2.03;1.73;;;;;;;;;;4923502;28;20058;-93
2023/08/13 10:19:38;;;;;;;1.50;1.40;;;;;;;;;;4969111;28;20046;-92
2023/08/13 10:22:09;;;;;;;4.10;2.42;;;;;;;;;;4965599;29;20039;-92
2023/08/13 10:24:38;;;;;;;3.03;1.85;;;;;;;;;;4947979;29;20063;-92
2023/08/13 10:27:12;;;;;;;2.13;1.92;;;;;;;;;;4956868;28;20040;-92
2023/08/13 10:29:42;;;;;;;3.30;1.90;;;;;;;;;;4935718;28;20070;-92
2023/08/13 10:32:17;;;;;;;2.67;2.00;;;;;;;;;;4956895;29;20062;-92
2023/08/13 10:35:24;;;;;;;4.93;1.98;;;;;;;;;;4966004;28;20038;-91
2023/08/13 10:37:55;;;;;;;3.20;1.63;;;;;;;;;;4954995;28;20274;-90
2023/08/13 10:40:22;;;;;;;2.25;1.50;;;;;;;;;;4970955;28;20057;-93
2023/08/13 10:42:52;;;;;;;6.18;2.03;;;;;;;;;;4967533;28;20051;-92
2023/08/13 10:45:20;;;;;;;2.50;1.80;;;;;;;;;;4976110;28;20039;-91
2023/08/13 10:47:53;;;;;;;2.03;1.83;;;;;;;;;;4928329;29;20043;-94
2023/08/13 10:50:27;;;;;;;;;;;;;;;;;;4957483;28;20062;-93
2023/08/13 10:53:02;;;;;;;2.03;1.73;;;;;;;;;;4966688;28;19929;-91
2023/08/13 10:55:34;;;;;;;4.30;2.40;;;;;;;;;;4954341;28;20037;-93
2023/08/13 10:58:02;;;;;;;2.78;1.73;;;;;;;;;;4971632;28;20035;-92
2023/08/13 11:00:29;;;;;;;2.92;1.40;;;;;;;;;;4954298;28;20049;-93
2023/08/13 11:02:59;;;;;;;2.75;1.55;;;;;;;;;;4952891;28;20040;-93
2023/08/13 11:05:28;;;;;;;4.88;1.85;;;;;;;;;;4968863;28;20045;-91
2023/08/13 11:07:59;;;;;;;2.83;1.75;;;;;;;;;;4938259;29;20047;-92
2023/08/13 11:10:53;;;;;;;2.38;1.65;;;;;;;;;;4948613;28;20047;-93
2023/08/13 11:13:21;;;;;;;4.22;1.73;;;;;;;;;;4934940;29;20089;-92
2023/08/13 11:15:50;;;;;;;2.72;1.75;;;;;;;;;;4937025;29;20055;-93
2023/08/13 11:18:21;;;;;;;2.63;2.03;;;;;;;;;;4918930;29;20067;-92
2023/08/13 11:20:50;;;;;;;2.90;2.17;;;;;;;;;;4952581;28;20047;-93
2023/08/13 11:23:22;;;;;;;3.13;1.55;;;;;;;;;;4929639;28;20057;-93
2023/08/13 11:25:51;;;;;;;3.90;1.88;;;;;;;;;;4937024;28;20054;-93
2023/08/13 11:28:19;;;;;;;2.83;1.90;;;;;;;;;;4961661;29;20035;-93
2023/08/13 11:30:47;;;;;;;5.72;2.28;;;;;;;;;;4936653;29;20063;-92
2023/08/13 11:33:17;;;;;;;4.03;2.03;;;;;;;;;;4925037;29;20048;-93
2023/08/13 11:35:45;;;;;;;3.45;1.60;;;;;;;;;;4957414;28;20063;-92
2023/08/13 11:38:13;;;;;;;1.75;1.65;;;;;;;;;;4921111;29;20054;-91
2023/08/13 11:40:42;;;;;;;1.35;1.13;;;;;;;;;;4927194;29;20043;-92
2023/08/13 11:43:10;;;;;;;3.67;2.00;;;;;;;;;;4945810;28;20435;-92
2023/08/13 11:45:41;;;;;;;2.70;1.77;;;;;;;;;;4955028;28;20035;-92
2023/08/13 11:48:14;;;;;;;2.53;1.42;;;;;;;;;;4938908;29;20035;-92
2023/08/13 11:50:50;;;;;;;2.97;2.00;;;;;;;;;;4942874;28;20044;-91
2023/08/13 11:53:29;;;;;;;3.38;1.83;;;;;;;;;;4966571;28;20035;-93
2023/08/13 11:55:58;;;;;;;3.38;1.90;;;;;;;;;;4946712;28;20058;-92
2023/08/13 11:58:28;;;;;;;3.88;1.80;;;;;;;;;;4963310;29;20058;-94
2023/08/13 12:00:58;;;;;;;1.83;1.20;;;;;;;;;;4955305;28;20059;-91
2023/08/13 12:03:59;;;;;;;2.10;1.83;;;;;;;;;;4952064;28;20051;-93
2023/08/13 12:06:39;;;;;;;2.70;1.58;;;;;;;;;;4935404;28;20055;-91
2023/08/13 12:09:07;;;;;;;2.65;1.70;;;;;;;;;;4958996;28;20059;-94
2023/08/13 12:11:35;;;;;;;1.95;1.52;;;;;;;;;;4941751;29;20055;-91
2023/08/13 12:14:07;;;;;;;6.45;1.92;;;;;;;;;;4937823;29;20054;-93
2023/08/13 12:16:35;;;;;;;2.63;1.40;;;;;;;;;;4941894;29;20055;-91
2023/08/13 12:19:06;;;;;;;1.52;1.42;;;;;;;;;;4944391;29;20047;-93
2023/08/13 12:21:35;;;;;;;2.33;1.67;;;;;;;;;;4962067;28;20062;-91
2023/08/13 12:24:04;;;;;;;2.65;1.48;;;;;;;;;;4937182;28;20797;-93
2023/08/13 12:26:31;;;;;;;1.50;1.40;;;;;;;;;;4962329;28;20061;-93
2023/08/13 12:29:02;;;;;;;4.10;1.50;;;;;;;;;;4970372;28;20050;-92
2023/08/13 12:31:31;;;;;;;2.75;1.23;;;;;;;;;;4964275;28;20059;-92
2023/08/13 12:33:58;;;;;;;2.75;1.35;;;;;;;;;;4960641;28;20059;-92
2023/08/13 12:36:26;;;;;;;3.17;1.60;;;;;;;;;;4929243;29;20051;-92
2023/08/13 12:38:53;;;;;;;1.65;1.55;;;;;;;;;;4958486;28;20038;-93
2023/08/13 12:41:21;;;;;;;1.73;1.50;;;;;;;;;;4927101;28;20043;-91
2023/08/13 12:43:50;;;;;;;1.60;1.05;;;;;;;;;;4941314;29;20062;-93
2023/08/13 12:46:21;;;;;;;2.85;1.35;;;;;;;;;;4950451;29;20047;-92
2023/08/13 12:48:51;;;;;;;2.53;1.25;;;;;;;;;;4967110;28;20047;-93
2023/08/13 12:51:21;;;;;;;1.42;1.00;;;;;;;;;;4947494;28;20026;-94
2023/08/13 12:53:59;;;;;;;4.07;1.52;;;;;;;;;;4975165;28;20051;-92
2023/08/13 12:56:38;;;;;;;2.22;2.03;;;;;;;;;;4973357;28;20047;-93
2023/08/13 12:59:22;;;;;;;1.80;1.55;;;;;;;;;;4956216;28;20057;-94
2023/08/13 13:01:54;;;;;;;1.88;1.60;;;;;;;;;;4948773;28;20087;-93
2023/08/13 13:04:21;;;;;;;1.98;1.33;;;;;;;;;;4976178;28;20035;-95
2023/08/13 13:06:52;;;;;;;2.72;1.13;;;;;;;;;;4943200;28;20031;-96
2023/08/13 13:09:19;;;;;;;3.33;1.33;;;;;;;;;;4969580;28;20054;-94
2023/08/13 13:11:53;;;;;;;2.45;1.42;;;;;;;;;;4954110;28;20216;-93
2023/08/13 13:14:21;;;;;;;1.63;1.13;;;;;;;;;;4952583;28;20050;-93
2023/08/13 13:16:49;;;;;;;2.30;1.42;;;;;;;;;;4954133;28;20038;-92
2023/08/13 13:19:18;;;;;;;2.40;1.30;;;;;;;;;;4971195;28;20057;-93
2023/08/13 13:21:46;;;;;;;5.38;1.38;;;;;;;;;;4951868;28;20042;-91
2023/08/13 13:24:23;;;;;;;1.83;1.40;;;;;;;;;;4974210;28;20057;-93
2023/08/13 13:26:54;;;;;;;3.45;1.70;;;;;;;;;;4968884;28;20045;-92
2023/08/13 13:29:22;;;;;;;2.17;1.52;;;;;;;;;;4948634;28;20062;-90
2023/08/13 13:31:51;;;;;;;2.20;1.60;;;;;;;;;;4952309;28;20043;-91
2023/08/13 13:34:20;;;;;;;1.77;1.10;;;;;;;;;;4971050;28;20058;-91
2023/08/13 13:36:59;;;;;;;1.73;1.17;;;;;;;;;;4951659;28;20044;-90
2023/08/13 13:39:27;;;;;;;3.50;1.65;;;;;;;;;;4965289;28;20051;-90
2023/08/13 13:41:54;;;;;;;1.30;1.10;;;;;;;;;;4947705;28;20039;-91
2023/08/13 13:44:22;;;;;;;1.98;1.15;;;;;;;;;;4950124;29;20073;-91
2023/08/13 13:46:57;;;;;;;2.30;1.08;;;;;;;;;;4966080;28;20043;-90
2023/08/13 13:49:26;;;;;;;;;;;;;;;;;;4952721;28;20045;-90
2023/08/13 13:52:31;;;;;;;2.67;0.98;;;;;;;;;;4967653;28;19928;-93
2023/08/13 13:54:58;;;;;;;3.40;1.77;;;;;;;;;;4956462;28;20050;-91
2023/08/13 13:57:26;;;;;;;2.17;1.60;;;;;;;;;;4963477;28;20046;-91
2023/08/13 13:59:54;;;;;;;1.88;1.08;;;;;;;;;;4967543;28;20047;-93
2023/08/13 14:02:24;;;;;;;1.30;1.00;;;;;;;;;;4972823;28;20047;-91
2023/08/13 14:04:54;;;;;;;3.70;1.13;;;;;;;;;;4968249;28;20042;-92
2023/08/13 14:07:23;;;;;;;1.15;1.05;;;;;;;;;;4972876;28;20039;-91
2023/08/13 14:09:53;;;;;;;2.27;1.50;;;;;;;;;;4955599;28;20038;-92
2023/08/13 14:12:22;;;;;;;1.30;1.20;;;;;;;;;;4961740;28;20500;-90
2023/08/13 14:14:50;;;;;;;1.77;1.10;;;;;;;;;;4954385;28;20040;-92
2023/08/13 14:17:17;;;;;;;1.33;1.10;;;;;;;;;;4978303;28;20035;-91
2023/08/13 14:19:47;;;;;;;4.22;1.25;;;;;;;;;;4974753;28;20032;-92
2023/08/13 14:22:23;;;;;;;1.23;1.10;;;;;;;;;;4972908;28;20035;-90
2023/08/13 14:24:50;;;;;;;1.38;1.15;;;;;;;;;;4966247;28;20144;-91
2023/08/13 14:27:18;;;;;;;1.20;0.80;;;;;;;;;;4943459;29;20047;-92
2023/08/13 14:29:49;;;;;;;3.00;1.15;;;;;;;;;;4955207;28;20043;-92
2023/08/13 14:32:16;;;;;;;1.90;1.40;;;;;;;;;;4968729;28;20038;-90
2023/08/13 14:34:43;;;;;;;2.83;2.03;;;;;;;;;;4967083;28;20048;-93
2023/08/13 14:37:13;;;;;;;1.67;1.20;;;;;;;;;;4955927;28;20048;-90
2023/08/13 14:39:42;;;;;;;1.77;1.27;;;;;;;;;;4941432;28;20055;-92
2023/08/13 14:42:14;;;;;;;1.95;1.27;;;;;;;;;;4974630;28;20039;-92
2023/08/13 14:44:41;;;;;;;1.80;1.60;;;;;;;;;;4972848;28;20054;-91
2023/08/13 14:47:09;;;;;;;1.38;1.13;;;;;;;;;;4933709;29;20051;-92
2023/08/13 14:49:37;;;;;;;1.27;1.05;;;;;;;;;;4958001;28;20044;-93
2023/08/13 14:52:05;;;;;;;1.80;1.00;;;;;;;;;;4963476;28;20043;-91
2023/08/13 14:54:32;;;;;;;3.30;0.98;;;;;;;;;;4953595;28;20062;-91
2023/08/13 14:57:01;;;;;;;1.83;1.25;;;;;;;;;;4957045;28;20054;-91
2023/08/13 14:59:29;;;;;;;2.03;1.30;;;;;;;;;;4946756;28;20059;-92
2023/08/13 15:02:01;;;;;;;2.17;1.15;;;;;;;;;;4930722;29;20055;-91
2023/08/13 15:04:28;;;;;;;2.08;1.00;;;;;;;;;;4937105;28;20057;-91